Hlavní strana
METAR-TAF:

METAR-TAF

Letiště :

Mo i Rana, Norsko

zeměpisná šířka: 66-22N, zeměpisná délka: 014-18E, výška: 7 m

Aktuální stav počasí

Zpráva byla vytvořena před 3 hodinami a 53 minutami, v 22:50 UTC
vítr z různých směrů 1 kt
Teplota 3°C
Vlhkost vzduchu 100%
Tlak 1010 hPa
Viditelnost 10 km a více
Polojasno ve výšce 400 ft
Oblačno až skoro zataženo ve výšce 2000 ft
slabý déšť, mrholení

METAR: ENRA 132250Z VRB01KT 9999 -RADZ SCT004 BKN020 03/03 Q1010

Čas: 03:43 (02:43 UTC)

Předpověď počasí

Zpráva byla vytvořena před 9 hodinami a 43 minutami, v 17:00 UTC
Předpověď platná od 13 v 18 UTC do 13 v 23 UTC
vítr z různých směrů 5 kt
Viditelnost 10 km a více
Skoro jasno ve výšce 300 ft
Oblačno až skoro zataženo ve výšce 2000 ft
slabé dešťové přeháňky
Pravděpodobnost 40%
od 13 v 18 UTC do 13 v 23 UTC
Oblačno až skoro zataženo ve výšce 1200 ft

TAF: ENRA 131700Z 1318/1323 VRB05KT 9999 -SHRA FEW003 BKN020 PROB40 1318/1323 BKN012

Stav a předpovědi počasí z více než 4 000 letišť (zprávy METAR a TAF).

Červené a žluté tečky na mapě představují dostupné meteorologické stanice.

Když kurzor umístíte na tečku, zobrazí se název stanice.

Pak kliknutím zobrazíte stav a předpověď počasí.

Chcete-li změnit mapu, kliknutím na zelené tlačítko se znaménkem +mapu přiblížíte, kliknutím na zelené tlačítko se znaménkem – mapu oddálíte a kliknutím na zelené šipky přejdete na sousední mapy.


METAR-TAF: